Time;durP1;ratioP1;P1;durP2;ratioP2;P2;SDS_P1;SDS_P2;PMS_P1;PMS_P2;Temp;Humidity;BMP_temperature;BMP_pressure;BME280_temperature;BME280_humidity;BME280_pressure;Samples;Min_cycle;Max_cycle;Signal;HPM_P1;HPM_P2
2024/02/10 00:01:24;;;;;;;25.30;23.50;;;;;;;3.42;100.00;100166.06;4982159;28;20062;-66
2024/02/10 00:03:51;;;;;;;25.20;23.30;;;;;;;3.30;100.00;100164.78;4982751;28;20065;-66
2024/02/10 00:06:18;;;;;;;24.40;22.33;;;;;;;3.55;100.00;100157.59;4985744;28;20531;-66
2024/02/10 00:08:45;;;;;;;21.92;20.13;;;;;;;3.64;100.00;100153.94;4984692;28;20451;-64
2024/02/10 00:11:13;;;;;;;23.30;21.70;;;;;;;3.79;100.00;100167.13;4983461;28;20451;-65
2024/02/10 00:13:41;;;;;;;22.98;21.38;;;;;;;3.73;100.00;100168.66;4974178;28;20457;-65
2024/02/10 00:16:09;;;;;;;23.85;22.15;;;;;;;3.50;100.00;100171.25;4977802;28;20081;-64
2024/02/10 00:18:36;;;;;;;23.35;21.65;;;;;;;3.44;100.00;100166.69;4974968;28;20058;-65
2024/02/10 00:21:03;;;;;;;22.50;21.00;;;;;;;3.28;100.00;100161.53;4976787;28;20066;-66
2024/02/10 00:23:30;;;;;;;21.98;20.08;;;;;;;3.36;100.00;100151.81;4982011;28;20058;-66
2024/02/10 00:25:57;;;;;;;30.90;22.73;;;;;;;3.38;100.00;100155.06;4982890;28;20551;-66
2024/02/10 00:28:26;;;;;;;25.70;23.90;;;;;;;3.61;100.00;100160.34;4984542;28;20077;-66
2024/02/10 00:30:54;;;;;;;24.60;22.30;;;;;;;3.30;100.00;100163.00;4981115;28;20062;-66
2024/02/10 00:33:21;;;;;;;24.17;22.48;;;;;;;3.43;100.00;100158.00;4982420;28;20408;-66
2024/02/10 00:35:48;;;;;;;25.00;23.23;;;;;;;3.62;100.00;100151.47;4982686;28;20051;-66
2024/02/10 00:38:20;;;;;;;23.40;21.80;;;;;;;3.59;100.00;100148.38;4977388;28;20451;-66
2024/02/10 00:40:48;;;;;;;23.70;22.10;;;;;;;3.55;100.00;100149.72;4983850;28;20050;-66
2024/02/10 00:43:15;;;;;;;25.88;24.08;;;;;;;3.48;100.00;100141.75;4982717;28;20506;-66
2024/02/10 00:45:46;;;;;;;24.42;22.73;;;;;;;3.38;100.00;100155.06;4979010;28;20054;-66
2024/02/10 00:48:13;;;;;;;25.67;23.98;;;;;;;3.30;100.00;100151.66;4978893;28;20428;-66
2024/02/10 00:50:41;;;;;;;23.27;21.75;;;;;;;3.21;100.00;100143.84;4982225;28;20050;-66
2024/02/10 00:53:08;;;;;;;28.95;26.48;;;;;;;3.24;100.00;100137.44;4982655;28;20116;-66
2024/02/10 00:55:35;;;;;;;24.67;22.98;;;;;;;3.42;100.00;100137.19;4979723;28;20522;-66
2024/02/10 00:58:03;;;;;;;27.92;25.75;;;;;;;3.48;100.00;100130.38;4981802;28;20073;-66
2024/02/10 01:00:30;;;;;;;29.80;27.27;;;;;;;3.12;100.00;100138.81;4975671;28;20062;-67
2024/02/10 01:02:58;;;;;;;27.00;25.30;;;;;;;3.27;100.00;100157.25;4981257;28;20054;-66
2024/02/10 01:05:25;;;;;;;25.58;23.88;;;;;;;3.84;100.00;100154.28;4980826;28;20069;-66
2024/02/10 01:07:52;;;;;;;25.08;23.38;;;;;;;3.67;100.00;100159.66;4983411;28;20412;-64
2024/02/10 01:10:19;;;;;;;25.50;23.85;;;;;;;4.21;100.00;100160.56;4977867;28;20050;-64
2024/02/10 01:12:46;;;;;;;25.63;23.83;;;;;;;3.87;100.00;100162.66;4982725;28;20054;-64
2024/02/10 01:15:13;;;;;;;24.55;22.95;;;;;;;3.80;100.00;100153.00;4980909;28;20054;-65
2024/02/10 01:17:42;;;;;;;25.70;24.00;;;;;;;3.94;100.00;100148.81;4977100;28;20581;-64
2024/02/10 01:20:17;;;;;;;25.48;23.77;;;;;;;3.39;100.00;100148.84;4977997;28;20421;-65
2024/02/10 01:22:45;;;;;;;24.95;23.05;;;;;;;3.58;100.00;100152.00;4973297;28;20141;-64
2024/02/10 01:25:11;;;;;;;26.00;24.27;;;;;;;3.62;100.00;100148.84;4970870;28;20090;-64
2024/02/10 01:27:38;;;;;;;25.60;24.00;;;;;;;3.74;100.00;100145.81;4981446;28;20053;-66
2024/02/10 01:30:09;;;;;;;25.63;23.83;;;;;;;3.70;100.00;100145.34;4975551;28;20065;-66
2024/02/10 01:32:36;;;;;;;30.75;27.60;;;;;;;3.63;100.00;100136.53;4978761;28;20050;-66
2024/02/10 01:35:04;;;;;;;29.88;27.77;;;;;;;3.38;100.00;100136.69;4968077;28;20061;-66
2024/02/10 01:37:32;;;;;;;32.20;29.33;;;;;;;3.52;100.00;100136.94;4978697;28;20579;-66
2024/02/10 01:40:01;;;;;;;30.08;27.90;;;;;;;3.62;100.00;100143.59;4978319;28;20504;-66
2024/02/10 01:42:37;;;;;;;30.15;27.23;;;;;;;3.85;100.00;100148.06;4973277;28;20062;-66
2024/02/10 01:45:07;;;;;;;28.98;25.95;;;;;;;3.93;100.00;100141.91;4981209;28;20065;-66
2024/02/10 01:47:36;;;;;;;33.28;29.92;;;;;;;3.87;100.00;100151.28;4978376;28;20108;-65
2024/02/10 01:50:03;;;;;;;28.08;25.75;;;;;;;3.88;100.00;100151.13;4980357;28;20080;-65
2024/02/10 01:52:32;;;;;;;25.83;23.60;;;;;;;4.13;100.00;100153.56;4977826;28;20790;-66
2024/02/10 01:54:59;;;;;;;26.73;24.83;;;;;;;4.05;100.00;100146.56;4977577;28;20054;-66
2024/02/10 01:57:27;;;;;;;26.38;24.30;;;;;;;4.16;100.00;100136.63;4976109;28;20109;-65
2024/02/10 01:59:54;;;;;;;28.02;26.02;;;;;;;4.25;100.00;100140.81;4982719;28;20046;-66
2024/02/10 02:02:21;;;;;;;25.08;23.48;;;;;;;4.34;100.00;100137.09;4975390;28;20058;-66
2024/02/10 02:04:48;;;;;;;27.08;25.33;;;;;;;4.15;100.00;100148.16;4982953;28;20050;-66
2024/02/10 02:07:15;;;;;;;26.95;25.25;;;;;;;4.13;100.00;100135.16;4980288;28;20042;-66
2024/02/10 02:09:44;;;;;;;31.15;29.15;;;;;;;4.30;100.00;100141.09;4980787;28;20200;-66
2024/02/10 02:12:11;;;;;;;27.30;25.60;;;;;;;4.45;100.00;100141.09;4977393;28;20062;-66
2024/02/10 02:14:38;;;;;;;28.20;26.50;;;;;;;4.21;100.00;100139.53;4974977;28;20050;-66
2024/02/10 02:17:06;;;;;;;30.60;28.67;;;;;;;4.06;100.00;100142.13;4973629;28;20065;-66
2024/02/10 02:19:34;;;;;;;29.25;27.35;;;;;;;4.15;100.00;100135.81;4980359;28;20077;-65
2024/02/10 02:22:01;;;;;;;32.65;30.30;;;;;;;4.04;100.00;100144.94;4975268;28;20062;-66
2024/02/10 02:24:30;;;;;;;32.58;30.15;;;;;;;3.97;100.00;100143.19;4984151;28;20105;-64
2024/02/10 02:26:57;;;;;;;31.13;28.85;;;;;;;3.87;100.00;100135.53;4976727;28;20042;-64
2024/02/10 02:29:25;;;;;;;31.85;29.67;;;;;;;3.83;100.00;100126.38;4975371;28;20061;-65
2024/02/10 02:31:53;;;;;;;31.50;29.17;;;;;;;3.74;100.00;100125.63;4977550;28;20177;-64
2024/02/10 02:34:20;;;;;;;30.23;27.90;;;;;;;3.87;100.00;100123.25;4973507;28;20530;-64
2024/02/10 02:36:47;;;;;;;30.45;28.33;;;;;;;3.95;100.00;100121.53;4974279;28;20077;-64
2024/02/10 02:39:14;;;;;;;31.13;29.23;;;;;;;4.11;100.00;100121.38;4979845;28;20393;-64
2024/02/10 02:41:42;;;;;;;32.40;29.30;;;;;;;4.01;100.00;100129.50;4978447;28;20060;-64
2024/02/10 02:44:14;;;;;;;27.92;26.23;;;;;;;4.21;100.00;100131.66;4977874;28;20055;-64
2024/02/10 02:46:41;;;;;;;27.38;25.67;;;;;;;4.55;100.00;100121.44;4972332;28;20532;-64
2024/02/10 02:49:08;;;;;;;26.40;24.70;;;;;;;4.85;100.00;100118.00;4975945;28;20051;-64
2024/02/10 02:51:35;;;;;;;28.42;26.75;;;;;;;5.09;100.00;100115.06;4971166;28;20046;-65
2024/02/10 02:54:02;;;;;;;28.02;26.38;;;;;;;5.16;100.00;100109.84;4978573;28;20062;-64
2024/02/10 02:56:29;;;;;;;28.23;26.52;;;;;;;4.88;100.00;100110.53;4982429;28;20057;-64
2024/02/10 02:58:57;;;;;;;29.27;27.42;;;;;;;4.94;100.00;100114.25;4984233;28;20118;-65
2024/02/10 03:01:24;;;;;;;26.42;24.83;;;;;;;4.76;100.00;100104.94;4984906;28;20054;-64
2024/02/10 03:03:51;;;;;;;27.00;25.40;;;;;;;4.56;100.00;100109.09;4985720;28;20054;-64
2024/02/10 03:06:19;;;;;;;29.15;27.05;;;;;;;4.53;100.00;100117.34;4979594;28;20053;-64
2024/02/10 03:08:46;;;;;;;28.98;26.80;;;;;;;4.85;100.00;100121.44;4987397;28;20130;-65
2024/02/10 03:11:17;;;;;;;23.98;22.38;;;;;;;5.83;100.00;100129.78;4980675;28;20121;-65
2024/02/10 03:13:45;;;;;;;24.50;23.00;;;;;;;6.21;100.00;100132.19;4982874;28;20058;-64
2024/02/10 03:16:15;;;;;;;24.42;22.92;;;;;;;6.02;100.00;100139.75;4982892;28;20138;-64
2024/02/10 03:18:46;;;;;;;26.75;24.95;;;;;;;6.43;100.00;100139.03;4985942;28;20054;-65
2024/02/10 03:21:15;;;;;;;22.77;21.27;;;;;;;6.53;100.00;100142.13;4980077;28;20057;-65
2024/02/10 03:23:44;;;;;;;24.30;22.80;;;;;;;6.48;100.00;100126.06;4985456;28;20050;-65
2024/02/10 03:26:11;;;;;;;23.75;22.33;;;;;;;6.29;100.00;100119.63;4979897;28;20056;-65
2024/02/10 03:28:38;;;;;;;24.60;23.10;;;;;;;6.22;100.00;100115.34;4987034;28;20834;-64
2024/02/10 03:31:07;;;;;;;24.45;22.95;;;;;;;6.10;100.00;100126.41;4979867;28;20051;-65
2024/02/10 03:33:36;;;;;;;24.85;23.33;;;;;;;6.08;100.00;100136.34;4984265;28;20137;-65
2024/02/10 03:36:05;;;;;;;24.75;23.13;;;;;;;6.54;100.00;100124.50;4969256;28;20066;-65
2024/02/10 03:38:31;;;;;;;25.15;23.45;;;;;;;6.32;100.00;100136.91;4984757;28;20053;-64
2024/02/10 03:40:58;;;;;;;25.27;23.77;;;;;;;6.03;100.00;100135.28;4977352;28;20094;-65
2024/02/10 03:43:27;;;;;;;27.42;25.75;;;;;;;5.64;100.00;100144.41;4985199;28;20417;-65
2024/02/10 03:45:54;;;;;;;25.88;24.27;;;;;;;5.67;100.00;100136.94;4978590;28;20133;-65
2024/02/10 03:48:21;;;;;;;23.25;21.75;;;;;;;5.38;100.00;100137.84;4982478;28;20084;-64
2024/02/10 03:50:49;;;;;;;22.95;21.35;;;;;;;5.38;100.00;100144.94;4981112;28;20054;-64
2024/02/10 03:53:19;;;;;;;25.58;23.98;;;;;;;5.27;100.00;100140.97;4982874;28;20058;-64
2024/02/10 03:55:46;;;;;;;25.50;23.90;;;;;;;5.37;100.00;100143.31;4979221;28;20069;-66
2024/02/10 03:58:16;;;;;;;30.73;23.60;;;;;;;5.36;100.00;100139.06;4978488;28;20117;-66
2024/02/10 04:00:44;;;;;;;28.30;26.25;;;;;;;5.38;100.00;100134.41;4979489;28;20467;-66
2024/02/10 04:03:12;;;;;;;31.75;29.85;;;;;;;5.17;100.00;100130.72;4979761;28;20093;-66
2024/02/10 04:05:39;;;;;;;32.33;30.73;;;;;;;5.10;100.00;100134.28;4980709;28;20056;-66
2024/02/10 04:08:09;;;;;;;27.80;26.20;;;;;;;5.46;100.00;100129.84;4982720;28;20054;-65
2024/02/10 04:10:36;;;;;;;28.40;26.70;;;;;;;5.56;100.00;100124.25;4978261;28;20113;-65
2024/02/10 04:13:09;;;;;;;28.77;26.98;;;;;;;5.75;100.00;100141.28;4971032;28;20062;-65
2024/02/10 04:15:36;;;;;;;29.02;26.38;;;;;;;6.25;100.00;100142.13;4983427;28;20809;-65
2024/02/10 04:18:05;;;;;;;29.15;27.45;;;;;;;6.61;100.00;100151.72;4981758;28;20046;-65
2024/02/10 04:20:32;;;;;;;24.65;23.15;;;;;;;6.58;100.00;100152.91;4976487;28;20061;-66
2024/02/10 04:22:59;;;;;;;25.60;24.10;;;;;;;6.30;100.00;100155.56;4979215;28;20149;-66
2024/02/10 04:25:31;;;;;;;26.73;25.15;;;;;;;6.31;100.00;100156.38;4982107;28;20054;-66
2024/02/10 04:28:02;;;;;;;26.17;24.00;;;;;;;6.13;100.00;100156.84;4983456;28;20044;-66
2024/02/10 04:30:29;;;;;;;24.58;22.98;;;;;;;6.04;100.00;100160.63;4978058;28;20046;-66
2024/02/10 04:32:56;;;;;;;27.50;25.90;;;;;;;6.00;100.00;100170.75;4984091;28;20054;-66
2024/02/10 04:35:25;;;;;;;29.65;27.85;;;;;;;5.85;100.00;100170.78;4980421;28;20050;-66
2024/02/10 04:37:55;;;;;;;30.17;28.17;;;;;;;5.71;100.00;100174.25;4979194;28;20050;-65
2024/02/10 04:40:24;;;;;;;29.80;28.02;;;;;;;5.61;100.00;100160.59;4972978;28;20054;-65
2024/02/10 04:42:53;;;;;;;32.40;30.50;;;;;;;5.48;100.00;100162.09;4978620;28;20054;-66
2024/02/10 04:45:25;;;;;;;32.60;30.80;;;;;;;5.47;100.00;100160.44;4983285;28;20791;-66
2024/02/10 04:47:52;;;;;;;31.23;29.42;;;;;;;5.66;100.00;100156.41;4983569;28;20128;-66
2024/02/10 04:50:19;;;;;;;31.90;30.10;;;;;;;5.73;100.00;100159.91;4976847;28;20512;-66
2024/02/10 04:52:46;;;;;;;29.95;28.25;;;;;;;5.64;100.00;100158.41;4982211;28;20057;-65
2024/02/10 04:55:15;;;;;;;30.75;29.05;;;;;;;5.53;100.00;100158.88;4974385;28;20447;-65
2024/02/10 04:57:42;;;;;;;27.92;26.33;;;;;;;5.80;100.00;100162.59;4979137;28;20054;-65
2024/02/10 05:00:15;;;;;;;30.98;28.58;;;;;;;5.50;100.00;100161.88;4976815;28;20055;-65
2024/02/10 05:02:44;;;;;;;29.38;27.67;;;;;;;5.18;100.00;100158.69;4984276;28;20527;-64
2024/02/10 05:05:11;;;;;;;32.00;29.63;;;;;;;5.15;100.00;100151.16;4980567;28;20058;-65
2024/02/10 05:07:43;;;;;;;28.40;26.70;;;;;;;5.19;100.00;100143.72;4976707;28;20124;-65
2024/02/10 05:10:11;;;;;;;27.65;25.98;;;;;;;5.25;100.00;100146.41;4975824;28;20404;-65
2024/02/10 05:12:39;;;;;;;29.25;27.58;;;;;;;5.09;100.00;100151.09;4985101;28;20133;-64
2024/02/10 05:15:09;;;;;;;28.77;26.83;;;;;;;5.09;100.00;100144.00;4976216;28;20065;-65
2024/02/10 05:17:42;;;;;;;23.95;22.35;;;;;;;5.00;100.00;100142.47;4981965;28;20054;-64
2024/02/10 05:20:17;;;;;;;27.35;25.35;;;;;;;5.10;100.00;100155.34;4976593;28;20050;-64
2024/02/10 05:22:47;;;;;;;24.98;23.58;;;;;;;5.24;100.00;100160.59;4981008;28;20057;-64
2024/02/10 05:25:14;;;;;;;28.63;26.92;;;;;;;4.94;100.00;100151.09;4979279;28;20113;-64
2024/02/10 05:27:44;;;;;;;28.30;26.60;;;;;;;4.94;100.00;100157.19;4977076;28;20061;-65
2024/02/10 05:30:14;;;;;;;28.05;25.58;;;;;;;4.81;100.00;100167.50;4972434;28;20146;-64
2024/02/10 05:32:45;;;;;;;28.85;26.52;;;;;;;4.94;100.00;100159.00;4983718;28;20062;-64
2024/02/10 05:35:18;;;;;;;25.58;23.98;;;;;;;5.04;100.00;100162.97;4984782;28;20112;-65
2024/02/10 05:37:48;;;;;;;25.33;23.73;;;;;;;5.08;100.00;100166.03;4977505;28;20073;-65
2024/02/10 05:40:16;;;;;;;26.02;24.33;;;;;;;5.00;100.00;100168.81;4978453;28;20058;-65
2024/02/10 05:42:45;;;;;;;25.52;23.85;;;;;;;5.20;100.00;100169.03;4975564;28;20825;-66
2024/02/10 05:45:17;;;;;;;23.00;21.40;;;;;;;5.30;100.00;100163.50;4973230;28;20532;-66
2024/02/10 05:47:45;;;;;;;25.57;23.90;;;;;;;5.15;100.00;100166.97;4978571;28;20106;-66
2024/02/10 05:50:15;;;;;;;26.17;24.48;;;;;;;5.11;100.00;100165.69;4978868;28;20057;-66
2024/02/10 05:52:43;;;;;;;25.92;24.23;;;;;;;5.21;100.00;100168.06;4977053;28;20058;-66
2024/02/10 05:55:12;;;;;;;26.08;24.42;;;;;;;5.24;100.00;100181.66;4973896;28;20054;-67
2024/02/10 05:57:39;;;;;;;26.27;24.55;;;;;;;4.98;100.00;100182.13;4973475;28;20789;-66
2024/02/10 06:00:09;;;;;;;27.38;25.38;;;;;;;4.93;100.00;100191.56;4975960;28;20069;-66
2024/02/10 06:02:39;;;;;;;25.05;23.42;;;;;;;5.39;100.00;100197.44;4975705;28;20065;-66
2024/02/10 06:05:10;;;;;;;26.08;24.20;;;;;;;5.44;100.00;100202.94;4977324;28;20066;-66
2024/02/10 06:07:37;;;;;;;25.77;23.98;;;;;;;5.68;100.00;100203.63;4969473;28;20054;-66
2024/02/10 06:10:09;;;;;;;22.98;21.38;;;;;;;5.78;100.00;100193.63;4979163;28;20464;-66
2024/02/10 06:12:39;;;;;;;25.85;24.15;;;;;;;5.76;100.00;100200.06;4977872;28;20094;-66
2024/02/10 06:15:09;;;;;;;25.55;23.90;;;;;;;5.82;100.00;100208.03;4980745;28;20065;-66
2024/02/10 06:17:38;;;;;;;26.20;24.40;;;;;;;6.05;100.00;100205.28;4976205;28;20068;-66
2024/02/10 06:20:07;;;;;;;25.05;23.05;;;;;;;6.11;100.00;100207.16;4977092;28;20046;-66
2024/02/10 06:22:36;;;;;;;24.33;22.77;;;;;;;6.16;100.00;100201.28;4975900;28;20174;-66
2024/02/10 06:25:03;;;;;;;25.13;23.23;;;;;;;6.31;100.00;100195.94;4978472;28;20050;-65
2024/02/10 06:27:32;;;;;;;22.95;21.40;;;;;;;6.19;100.00;100201.72;4978770;28;20132;-64
2024/02/10 06:30:01;;;;;;;23.95;22.35;;;;;;;6.26;100.00;100211.50;4983425;28;20057;-64
2024/02/10 06:32:34;;;;;;;26.35;24.38;;;;;;;6.22;100.00;100212.91;4983981;28;20505;-64
2024/02/10 06:35:01;;;;;;;25.63;23.73;;;;;;;6.28;100.00;100214.78;4978429;28;20062;-65
2024/02/10 06:37:32;;;;;;;23.33;21.83;;;;;;;6.79;100.00;100212.75;4982705;28;20822;-65
2024/02/10 06:40:00;;;;;;;26.88;24.75;;;;;;;6.69;100.00;100220.19;4981951;28;20086;-65
2024/02/10 06:42:34;;;;;;;23.40;22.00;;;;;;;6.89;100.00;100215.84;4978601;28;20054;-65
2024/02/10 06:45:01;;;;;;;23.15;21.70;;;;;;;6.75;100.00;100229.16;4978960;28;20059;-65
2024/02/10 06:47:28;;;;;;;22.98;21.42;;;;;;;6.90;100.00;100243.09;4982464;28;20658;-66
2024/02/10 06:49:56;;;;;;;23.08;21.65;;;;;;;7.13;100.00;100247.25;4979412;28;20081;-67
2024/02/10 06:52:22;;;;;;;23.05;21.60;;;;;;;7.21;100.00;100253.22;4983913;28;20093;-66
2024/02/10 06:54:50;;;;;;;24.27;22.67;;;;;;;7.34;100.00;100237.41;4980409;28;20064;-66
2024/02/10 06:57:23;;;;;;;24.05;22.55;;;;;;;7.36;100.00;100250.44;4982912;28;20435;-67
2024/02/10 06:59:49;;;;;;;24.45;22.95;;;;;;;7.25;100.00;100245.72;4977089;28;20049;-66
2024/02/10 07:02:19;;;;;;;26.60;25.02;;;;;;;7.19;100.00;100252.59;4982197;28;20054;-65
2024/02/10 07:04:52;;;;;;;30.48;28.48;;;;;;;7.20;100.00;100248.94;4977020;28;20443;-64
2024/02/10 07:07:19;;;;;;;26.98;25.17;;;;;;;7.36;100.00;100253.09;4975289;28;20054;-65
2024/02/10 07:09:46;;;;;;;26.15;24.45;;;;;;;7.18;100.00;100250.16;4982587;28;20058;-65
2024/02/10 07:12:13;;;;;;;25.73;24.02;;;;;;;7.54;100.00;100260.50;4977574;28;20073;-66
2024/02/10 07:14:44;;;;;;;28.63;26.83;;;;;;;7.68;100.00;100264.78;4983868;28;20046;-66
2024/02/10 07:17:11;;;;;;;28.83;26.75;;;;;;;7.85;100.00;100273.19;4978920;28;20058;-66
2024/02/10 07:19:42;;;;;;;22.92;21.52;;;;;;;8.02;100.00;100268.38;4985435;28;20958;-65
2024/02/10 07:22:09;;;;;;;25.25;23.73;;;;;;;8.22;100.00;100265.75;4977725;28;20871;-65
2024/02/10 07:24:40;;;;;;;25.05;23.45;;;;;;;8.34;100.00;100263.34;4984333;28;20047;-65
2024/02/10 07:27:07;;;;;;;23.75;22.20;;;;;;;8.32;100.00;100258.25;4975929;28;20062;-65
2024/02/10 07:29:35;;;;;;;25.23;23.40;;;;;;;8.31;100.00;100264.56;4985246;28;20054;-65
2024/02/10 07:32:10;;;;;;;26.05;23.27;;;;;;;8.72;100.00;100268.88;4981013;28;20066;-64
2024/02/10 07:34:37;;;;;;;25.35;23.75;;;;;;;8.62;100.00;100269.31;4984057;28;20065;-65
2024/02/10 07:37:04;;;;;;;25.15;23.45;;;;;;;9.68;100.00;100254.97;4984098;28;20066;-65
2024/02/10 07:39:31;;;;;;;24.10;22.42;;;;;;;9.44;100.00;100258.34;4982526;28;20054;-65
2024/02/10 07:42:00;;;;;;;26.40;24.17;;;;;;;9.79;100.00;100267.56;4981152;28;20050;-65
2024/02/10 07:44:27;;;;;;;22.50;21.00;;;;;;;10.13;100.00;100260.25;4980275;28;20058;-65
2024/02/10 07:46:55;;;;;;;22.80;21.30;;;;;;;10.42;100.00;100266.00;4989066;28;20050;-66
2024/02/10 07:49:24;;;;;;;22.83;21.25;;;;;;;10.70;100.00;100257.63;4982022;28;20057;-65
2024/02/10 07:51:51;;;;;;;22.70;21.20;;;;;;;11.27;100.00;100260.94;4980818;28;20494;-65
2024/02/10 07:54:20;;;;;;;30.38;28.33;;;;;;;11.26;100.00;100255.88;4979819;28;20100;-65
2024/02/10 07:56:47;;;;;;;26.65;24.85;;;;;;;11.48;100.00;100256.22;4981656;28;20065;-65
2024/02/10 07:59:14;;;;;;;23.38;21.70;;;;;;;11.93;100.00;100253.22;4983915;28;20060;-67
2024/02/10 08:01:41;;;;;;;24.25;22.55;;;;;;;12.32;100.00;100252.63;4983604;28;20050;-67
2024/02/10 08:04:09;;;;;;;24.10;22.20;;;;;;;12.54;100.00;100249.44;4979175;28;20769;-67
2024/02/10 08:06:39;;;;;;;23.95;22.15;;;;;;;12.98;100.00;100252.56;4982853;28;20086;-67
2024/02/10 08:09:08;;;;;;;23.95;22.25;;;;;;;13.18;100.00;100257.53;4974584;28;20058;-67
2024/02/10 08:11:39;;;;;;;25.23;23.42;;;;;;;13.44;100.00;100256.25;4979636;28;20046;-67
2024/02/10 08:14:09;;;;;;;24.52;22.73;;;;;;;13.58;100.00;100249.59;4980936;28;20077;-65
2024/02/10 08:16:40;;;;;;;24.95;23.05;;;;;;;13.80;100.00;100249.75;4978899;28;20056;-67
2024/02/10 08:19:07;;;;;;;23.58;21.77;;;;;;;13.80;100.00;100249.75;4977687;28;20070;-66
2024/02/10 08:21:34;;;;;;;25.10;22.38;;;;;;;14.03;100.00;100240.81;4981068;28;20759;-66
2024/02/10 08:24:02;;;;;;;32.63;30.40;;;;;;;14.19;100.00;100240.03;4979051;28;20064;-68
2024/02/10 08:26:29;;;;;;;26.42;24.42;;;;;;;14.91;100.00;100246.53;4983195;28;20046;-67
2024/02/10 08:28:57;;;;;;;24.85;22.95;;;;;;;14.60;100.00;100243.41;4982022;28;20054;-68
2024/02/10 08:31:24;;;;;;;24.80;22.90;;;;;;;14.71;100.00;100232.88;4984019;28;20062;-68
2024/02/10 08:33:52;;;;;;;24.70;22.90;;;;;;;14.74;100.00;100225.16;4982181;28;20072;-68
2024/02/10 08:36:19;;;;;;;25.58;23.70;;;;;;;14.83;100.00;100238.94;4980068;28;20702;-68
2024/02/10 08:38:47;;;;;;;25.77;23.98;;;;;;;15.58;100.00;100235.63;4974939;28;20567;-68
2024/02/10 08:41:17;;;;;;;23.55;21.75;;;;;;;15.66;100.00;100230.88;4981626;28;20081;-68
2024/02/10 08:43:47;;;;;;;24.05;22.35;;;;;;;15.48;100.00;100221.31;4982990;28;20062;-69
2024/02/10 08:46:14;;;;;;;23.67;21.98;;;;;;;15.39;100.00;100226.28;4986644;28;20085;-68
2024/02/10 08:48:42;;;;;;;25.60;23.60;;;;;;;15.12;100.00;100210.16;4982690;28;20054;-69
2024/02/10 08:51:11;;;;;;;24.85;22.95;;;;;;;15.76;100.00;100207.75;4978569;28;20050;-68
2024/02/10 08:53:39;;;;;;;24.42;22.52;;;;;;;16.02;100.00;100205.28;4978470;28;20060;-69
2024/02/10 08:56:08;;;;;;;23.77;21.88;;;;;;;16.31;100.00;100207.66;4984665;28;20064;-66
2024/02/10 08:58:36;;;;;;;25.52;23.63;;;;;;;16.49;100.00;100202.75;4979524;28;20145;-69
2024/02/10 09:01:06;;;;;;;23.13;21.35;;;;;;;16.71;100.00;100201.81;4982281;28;20050;-69
2024/02/10 09:03:33;;;;;;;23.95;22.08;;;;;;;16.67;100.00;100198.84;4982229;28;20049;-69
2024/02/10 09:06:00;;;;;;;24.77;22.88;;;;;;;16.77;100.00;100202.69;4979230;28;20055;-69
2024/02/10 09:08:27;;;;;;;25.25;23.17;;;;;;;16.58;100.00;100199.56;4979978;28;20081;-69
2024/02/10 09:10:54;;;;;;;22.23;20.42;;;;;;;17.08;100.00;100207.13;4976402;28;20046;-69
2024/02/10 09:13:21;;;;;;;23.63;21.77;;;;;;;17.09;100.00;100208.72;4976395;28;20063;-69
2024/02/10 09:15:49;;;;;;;24.83;22.55;;;;;;;17.26;100.00;100208.56;4979123;28;20509;-69
2024/02/10 09:18:16;;;;;;;26.15;24.15;;;;;;;17.26;100.00;100211.25;4973920;28;20088;-69
2024/02/10 09:20:43;;;;;;;25.67;23.67;;;;;;;16.21;100.00;100213.75;4974749;28;20057;-69
2024/02/10 09:23:10;;;;;;;23.50;21.60;;;;;;;17.07;100.00;100220.81;4975732;28;20551;-69
2024/02/10 09:25:38;;;;;;;28.25;26.05;;;;;;;16.38;100.00;100225.16;4980254;28;20070;-69
2024/02/10 09:28:06;;;;;;;26.17;24.15;;;;;;;16.29;100.00;100218.66;4974786;28;20057;-66
2024/02/10 09:30:35;;;;;;;27.48;25.17;;;;;;;15.66;100.00;100212.94;4980892;28;20137;-68
2024/02/10 09:33:04;;;;;;;28.77;26.67;;;;;;;14.08;100.00;100214.22;4978559;28;20054;-66
2024/02/10 09:35:39;;;;;;;28.33;25.88;;;;;;;13.57;100.00;100212.47;4978010;28;20050;-66
2024/02/10 09:38:07;;;;;;;25.60;23.60;;;;;;;15.06;100.00;100216.50;4976859;28;20054;-68
2024/02/10 09:40:36;;;;;;;28.83;26.70;;;;;;;15.29;100.00;100208.25;4968423;28;20138;-66
2024/02/10 09:43:07;;;;;;;26.25;24.08;;;;;;;14.00;100.00;100203.91;4974549;28;20058;-67
2024/02/10 09:45:40;;;;;;;24.97;23.10;;;;;;;14.70;100.00;100208.00;4977528;28;20046;-66
2024/02/10 09:48:09;;;;;;;25.83;23.83;;;;;;;13.54;100.00;100203.09;4970726;28;20069;-67
2024/02/10 09:50:36;;;;;;;30.50;28.20;;;;;;;13.18;100.00;100204.22;4977596;28;20042;-67
2024/02/10 09:53:04;;;;;;;30.20;28.05;;;;;;;13.04;100.00;100201.81;4978711;28;20055;-66
2024/02/10 09:55:30;;;;;;;28.50;26.40;;;;;;;12.76;100.00;100197.19;4978465;28;20058;-66
2024/02/10 09:58:00;;;;;;;31.77;29.40;;;;;;;12.87;100.00;100192.91;4980279;28;20428;-66
2024/02/10 10:00:27;;;;;;;28.98;26.58;;;;;;;13.53;100.00;100193.47;4980070;28;20050;-66
2024/02/10 10:02:59;;;;;;;27.63;25.52;;;;;;;15.40;100.00;100184.28;4976564;28;20054;-66
2024/02/10 10:05:29;;;;;;;29.45;27.25;;;;;;;16.76;100.00;100193.81;4971891;28;20672;-66
2024/02/10 10:07:56;;;;;;;25.98;23.90;;;;;;;16.72;100.00;100181.97;4978568;28;20742;-66
2024/02/10 10:10:23;;;;;;;28.05;25.85;;;;;;;17.24;83.52;100189.22;4975942;28;20047;-66
2024/02/10 10:12:51;;;;;;;29.80;27.52;;;;;;;16.53;100.00;100189.63;4979067;28;20054;-66
2024/02/10 10:15:18;;;;;;;29.17;26.77;;;;;;;17.06;82.94;100200.41;4980201;28;20050;-67
2024/02/10 10:17:45;;;;;;;28.52;26.17;;;;;;;16.67;91.94;100190.81;4978953;28;20062;-66
2024/02/10 10:20:12;;;;;;;31.98;29.58;;;;;;;16.89;82.85;100198.72;4981207;28;20050;-66
2024/02/10 10:22:40;;;;;;;31.92;29.23;;;;;;;16.68;93.48;100192.41;4980191;28;20062;-66
2024/02/10 10:25:09;;;;;;;29.17;26.80;;;;;;;15.74;100.00;100191.13;4978640;28;20444;-66
2024/02/10 10:27:38;;;;;;;28.25;25.95;;;;;;;15.47;100.00;100190.25;4978444;28;20050;-66
2024/02/10 10:30:10;;;;;;;35.13;32.63;;;;;;;16.10;100.00;100190.66;4979015;28;20519;-66
2024/02/10 10:32:42;;;;;;;31.13;28.73;;;;;;;16.87;79.64;100192.00;4977533;28;20576;-71
2024/02/10 10:35:11;;;;;;;31.10;28.70;;;;;;;15.12;100.00;100186.91;4975053;28;20105;-66
2024/02/10 10:37:39;;;;;;;29.38;26.98;;;;;;;15.72;100.00;100187.06;4972745;28;20058;-66
2024/02/10 10:40:11;;;;;;;27.75;25.55;;;;;;;13.92;100.00;100180.31;4974126;28;20055;-66
2024/02/10 10:42:41;;;;;;;25.92;23.73;;;;;;;15.82;100.00;100172.97;4981471;28;20054;-66
2024/02/10 10:45:10;;;;;;;29.70;27.40;;;;;;;15.51;100.00;100176.13;4973665;28;20141;-66
2024/02/10 10:47:41;;;;;;;27.95;25.65;;;;;;;15.05;100.00;100174.78;4980950;28;20479;-66
2024/02/10 10:50:08;;;;;;;26.90;24.63;;;;;;;14.84;100.00;100174.50;4977406;28;20051;-66
2024/02/10 10:52:39;;;;;;;27.05;24.80;;;;;;;14.27;100.00;100179.25;4981843;28;20072;-66
2024/02/10 10:55:11;;;;;;;28.75;26.45;;;;;;;14.74;100.00;100173.59;4982948;28;20085;-66
2024/02/10 10:57:40;;;;;;;27.25;24.98;;;;;;;14.63;100.00;100181.44;4979914;28;20444;-66
2024/02/10 11:00:15;;;;;;;24.95;22.85;;;;;;;13.55;100.00;100179.88;4975602;28;20054;-66
2024/02/10 11:02:43;;;;;;;26.42;24.42;;;;;;;13.05;100.00;100163.44;4978027;28;20086;-66
2024/02/10 11:05:12;;;;;;;26.48;24.38;;;;;;;12.76;100.00;100169.72;4974766;28;20054;-66
2024/02/10 11:07:49;;;;;;;27.27;25.17;;;;;;;12.67;100.00;100166.59;4977106;28;20507;-66
2024/02/10 11:10:35;;;;;;;28.02;25.85;;;;;;;12.52;100.00;100167.06;4972534;28;20527;-66
2024/02/10 11:13:02;;;;;;;24.98;23.08;;;;;;;12.88;100.00;100154.53;4973588;28;20058;-67